Time;durP1;ratioP1;P1;durP2;ratioP2;P2;SDS_P1;SDS_P2;PMS_P1;PMS_P2;Temp;Humidity;BMP_temperature;BMP_pressure;BME280_temperature;BME280_humidity;BME280_pressure;Samples;Min_cycle;Max_cycle;Signal;HPM_P1;HPM_P2
2022/10/27 00:00:51;;;;;;;;;;;23.30;44.30;;;;;;474921;251;1230;-53
2022/10/27 00:02:53;;;;;;;;;;;23.30;44.30;;;;;;475048;251;1207;-53
2022/10/27 00:04:54;;;;;;;;;;;23.30;44.30;;;;;;474893;251;1442;-53
2022/10/27 00:06:55;;;;;;;;;;;23.30;44.30;;;;;;475069;251;1230;-53
2022/10/27 00:08:57;;;;;;;;;;;23.30;44.30;;;;;;474640;251;2209;-53
2022/10/27 00:10:58;;;;;;;;;;;23.30;44.30;;;;;;474822;251;1353;-53
2022/10/27 00:12:59;;;;;;;;;;;23.30;44.30;;;;;;474997;251;1466;-53
2022/10/27 00:15:01;;;;;;;;;;;23.30;44.30;;;;;;474907;251;1188;-53
2022/10/27 00:17:02;;;;;;;;;;;23.30;44.30;;;;;;474824;251;1194;-53
2022/10/27 00:19:03;;;;;;;;;;;23.30;44.30;;;;;;474659;251;1171;-53
2022/10/27 00:21:05;;;;;;;;;;;23.30;44.30;;;;;;474707;251;1217;-53
2022/10/27 00:23:06;;;;;;;;;;;23.30;44.30;;;;;;475046;251;1190;-53
2022/10/27 00:25:07;;;;;;;;;;;23.30;44.40;;;;;;475089;251;1173;-53
2022/10/27 00:27:08;;;;;;;;;;;23.30;44.30;;;;;;474834;251;1200;-53
2022/10/27 00:29:10;;;;;;;;;;;23.30;44.30;;;;;;475083;251;2280;-53
2022/10/27 00:31:11;;;;;;;;;;;23.30;44.30;;;;;;474962;251;1245;-53
2022/10/27 00:33:12;;;;;;;;;;;23.30;44.30;;;;;;475076;251;1438;-53
2022/10/27 00:35:14;;;;;;;;;;;23.30;44.40;;;;;;474630;251;1210;-53
2022/10/27 00:37:15;;;;;;;;;;;23.30;44.30;;;;;;474614;251;1210;-53
2022/10/27 00:39:16;;;;;;;;;;;23.30;44.40;;;;;;474865;251;1267;-53
2022/10/27 00:41:18;;;;;;;;;;;23.30;44.40;;;;;;474662;251;1321;-53
2022/10/27 00:43:19;;;;;;;;;;;23.30;44.30;;;;;;474602;251;1486;-53
2022/10/27 00:45:20;;;;;;;;;;;23.30;44.40;;;;;;474628;251;1339;-52
2022/10/27 00:47:22;;;;;;;;;;;23.30;44.40;;;;;;474624;251;1357;-53
2022/10/27 00:49:23;;;;;;;;;;;23.30;44.40;;;;;;474973;251;2212;-53
2022/10/27 00:51:24;;;;;;;;;;;23.30;44.40;;;;;;474666;251;1289;-53
2022/10/27 00:53:26;;;;;;;;;;;23.30;44.40;;;;;;474626;251;1337;-53
2022/10/27 00:55:27;;;;;;;;;;;23.30;44.40;;;;;;474653;251;1439;-53
2022/10/27 00:57:28;;;;;;;;;;;23.30;44.40;;;;;;474954;251;1174;-53
2022/10/27 00:59:30;;;;;;;;;;;23.30;44.40;;;;;;475090;251;1307;-53
2022/10/27 01:01:31;;;;;;;;;;;23.30;44.40;;;;;;474672;251;1311;-53
2022/10/27 01:03:32;;;;;;;;;;;23.30;44.40;;;;;;474820;251;1210;-53
2022/10/27 01:05:34;;;;;;;;;;;23.30;44.40;;;;;;474654;251;1220;-53
2022/10/27 01:07:35;;;;;;;;;;;23.30;44.40;;;;;;474564;251;1281;-52
2022/10/27 01:09:36;;;;;;;;;;;23.30;44.50;;;;;;474718;251;2221;-53
2022/10/27 01:11:37;;;;;;;;;;;23.30;44.50;;;;;;474621;251;1272;-53
2022/10/27 01:13:39;;;;;;;;;;;23.30;44.50;;;;;;474611;251;1212;-53
2022/10/27 01:15:40;;;;;;;;;;;23.30;44.50;;;;;;474635;251;1207;-52
2022/10/27 01:17:41;;;;;;;;;;;23.30;44.50;;;;;;474705;251;1271;-52
2022/10/27 01:19:43;;;;;;;;;;;23.20;44.50;;;;;;474677;251;1370;-53
2022/10/27 01:21:44;;;;;;;;;;;23.30;44.60;;;;;;474682;251;1269;-53
2022/10/27 01:23:45;;;;;;;;;;;23.30;44.60;;;;;;475079;251;1212;-52
2022/10/27 01:25:47;;;;;;;;;;;23.20;44.50;;;;;;474879;251;1230;-53
2022/10/27 01:27:48;;;;;;;;;;;23.30;44.60;;;;;;474962;251;1238;-53
2022/10/27 01:29:49;;;;;;;;;;;23.30;44.60;;;;;;474854;251;2211;-53
2022/10/27 01:31:51;;;;;;;;;;;23.30;44.50;;;;;;474975;251;1321;-53
2022/10/27 01:33:52;;;;;;;;;;;23.30;44.50;;;;;;475079;251;1243;-53
2022/10/27 01:35:53;;;;;;;;;;;23.20;44.50;;;;;;474855;251;1314;-53
2022/10/27 01:37:55;;;;;;;;;;;23.30;44.60;;;;;;474686;251;1298;-53
2022/10/27 01:39:56;;;;;;;;;;;23.30;44.60;;;;;;474634;251;1236;-53
2022/10/27 01:41:57;;;;;;;;;;;23.30;44.60;;;;;;474964;251;1224;-53
2022/10/27 01:43:59;;;;;;;;;;;23.30;44.60;;;;;;474615;251;1309;-53
2022/10/27 01:46:00;;;;;;;;;;;23.30;44.60;;;;;;474713;251;1220;-53
2022/10/27 01:48:01;;;;;;;;;;;23.30;44.70;;;;;;475017;251;1188;-53
2022/10/27 01:50:03;;;;;;;;;;;23.30;44.70;;;;;;474636;251;2205;-53
2022/10/27 01:52:04;;;;;;;;;;;23.30;44.60;;;;;;474680;251;1404;-53
2022/10/27 01:54:05;;;;;;;;;;;23.30;44.60;;;;;;474939;251;1239;-53
2022/10/27 01:56:07;;;;;;;;;;;23.30;44.60;;;;;;475063;251;1219;-53
2022/10/27 01:58:08;;;;;;;;;;;23.30;44.70;;;;;;474977;251;1545;-53
2022/10/27 02:00:09;;;;;;;;;;;23.30;44.70;;;;;;475063;251;1287;-53
2022/10/27 02:02:11;;;;;;;;;;;23.30;44.70;;;;;;474795;251;1345;-53
2022/10/27 02:04:12;;;;;;;;;;;23.20;44.70;;;;;;474625;251;1196;-53
2022/10/27 02:06:13;;;;;;;;;;;23.20;44.70;;;;;;474621;251;1376;-53
2022/10/27 02:08:15;;;;;;;;;;;23.30;44.70;;;;;;474621;251;1273;-53
2022/10/27 02:10:16;;;;;;;;;;;23.30;44.70;;;;;;475031;251;2113;-53
2022/10/27 02:12:17;;;;;;;;;;;23.30;44.70;;;;;;474847;251;1355;-53
2022/10/27 02:14:19;;;;;;;;;;;23.30;44.70;;;;;;475027;251;1213;-53
2022/10/27 02:16:20;;;;;;;;;;;23.20;44.70;;;;;;474993;251;1255;-53
2022/10/27 02:18:21;;;;;;;;;;;23.20;44.70;;;;;;474736;251;1218;-53
2022/10/27 02:20:23;;;;;;;;;;;23.20;44.70;;;;;;475047;251;1244;-53
2022/10/27 02:22:24;;;;;;;;;;;23.20;44.70;;;;;;474629;251;1292;-53
2022/10/27 02:24:25;;;;;;;;;;;23.20;44.70;;;;;;474732;251;1776;-53
2022/10/27 02:26:27;;;;;;;;;;;23.30;44.70;;;;;;474617;251;1659;-52
2022/10/27 02:28:28;;;;;;;;;;;23.30;44.70;;;;;;474800;251;1385;-53
2022/10/27 02:30:29;;;;;;;;;;;23.20;44.70;;;;;;475046;251;2172;-53
2022/10/27 02:32:31;;;;;;;;;;;23.20;44.70;;;;;;474929;251;1396;-52
2022/10/27 02:34:32;;;;;;;;;;;23.30;44.80;;;;;;474931;251;1547;-53
2022/10/27 02:36:33;;;;;;;;;;;23.30;44.70;;;;;;474786;251;1263;-53
2022/10/27 02:38:35;;;;;;;;;;;23.30;44.80;;;;;;474690;251;1373;-53
2022/10/27 02:40:36;;;;;;;;;;;23.20;44.70;;;;;;474629;251;1226;-53
2022/10/27 02:42:37;;;;;;;;;;;23.30;44.80;;;;;;474704;251;1309;-53
2022/10/27 02:44:39;;;;;;;;;;;23.30;44.80;;;;;;474646;251;1245;-53
2022/10/27 02:46:40;;;;;;;;;;;23.20;44.70;;;;;;475051;251;1359;-53
2022/10/27 02:48:41;;;;;;;;;;;23.30;44.80;;;;;;474889;251;1247;-53
2022/10/27 02:50:43;;;;;;;;;;;23.30;44.80;;;;;;475043;251;2161;-53
2022/10/27 02:52:44;;;;;;;;;;;23.30;44.80;;;;;;474661;251;1270;-53
2022/10/27 02:54:47;;;;;;;;;;;23.30;44.70;;;;;;475077;251;1496;-53
2022/10/27 02:56:47;;;;;;;;;;;23.30;44.80;;;;;;474590;251;2302;-53
2022/10/27 02:58:48;;;;;;;;;;;23.30;44.80;;;;;;474669;251;1239;-53
2022/10/27 03:00:49;;;;;;;;;;;23.30;44.80;;;;;;475102;251;1206;-53
2022/10/27 03:02:50;;;;;;;;;;;23.30;44.80;;;;;;474638;251;1390;-54
2022/10/27 03:04:52;;;;;;;;;;;23.30;44.80;;;;;;475026;251;1392;-53
2022/10/27 03:06:53;;;;;;;;;;;23.30;44.80;;;;;;474679;251;1368;-53
2022/10/27 03:08:54;;;;;;;;;;;23.30;44.80;;;;;;474671;251;1256;-53
2022/10/27 03:10:56;;;;;;;;;;;23.30;44.80;;;;;;475052;251;2192;-53
2022/10/27 03:12:57;;;;;;;;;;;23.20;44.80;;;;;;475080;251;1240;-53
2022/10/27 03:14:58;;;;;;;;;;;23.20;44.80;;;;;;474803;251;1153;-52
2022/10/27 03:17:00;;;;;;;;;;;23.30;44.90;;;;;;474711;251;1323;-53
2022/10/27 03:19:01;;;;;;;;;;;23.30;44.80;;;;;;474788;251;1213;-53
2022/10/27 03:21:02;;;;;;;;;;;23.30;44.90;;;;;;474660;251;1645;-53
2022/10/27 03:23:04;;;;;;;;;;;23.30;44.90;;;;;;474605;251;1287;-53
2022/10/27 03:25:05;;;;;;;;;;;23.30;44.90;;;;;;474588;251;1651;-53
2022/10/27 03:27:06;;;;;;;;;;;23.20;44.80;;;;;;474717;251;1395;-52
2022/10/27 03:29:08;;;;;;;;;;;23.20;44.80;;;;;;474580;251;2197;-53
2022/10/27 03:31:09;;;;;;;;;;;23.20;44.90;;;;;;474905;251;1265;-53
2022/10/27 03:33:11;;;;;;;;;;;23.20;44.90;;;;;;474570;251;1325;-53
2022/10/27 03:35:12;;;;;;;;;;;23.30;44.90;;;;;;474896;251;1267;-53
2022/10/27 03:37:13;;;;;;;;;;;23.20;44.90;;;;;;474781;251;1272;-53
2022/10/27 03:39:15;;;;;;;;;;;23.20;44.90;;;;;;475003;251;1724;-53
2022/10/27 03:41:16;;;;;;;;;;;23.20;44.90;;;;;;475008;251;1173;-53
2022/10/27 03:43:17;;;;;;;;;;;23.30;44.90;;;;;;474883;251;1201;-53
2022/10/27 03:45:19;;;;;;;;;;;23.20;44.90;;;;;;475052;251;1184;-52
2022/10/27 03:47:20;;;;;;;;;;;23.30;44.90;;;;;;475002;251;1314;-53
2022/10/27 03:49:21;;;;;;;;;;;23.20;45.00;;;;;;474745;251;2193;-53
2022/10/27 03:51:23;;;;;;;;;;;23.20;45.00;;;;;;475000;251;1372;-53
2022/10/27 03:53:24;;;;;;;;;;;23.20;45.00;;;;;;474695;251;1286;-53
2022/10/27 03:55:26;;;;;;;;;;;23.20;44.90;;;;;;474698;251;1310;-53
2022/10/27 03:57:27;;;;;;;;;;;23.20;44.90;;;;;;474685;251;1203;-53
2022/10/27 03:59:28;;;;;;;;;;;23.20;45.00;;;;;;474656;251;1118;-53
2022/10/27 04:01:30;;;;;;;;;;;23.20;45.00;;;;;;475100;251;1187;-53
2022/10/27 04:03:31;;;;;;;;;;;23.20;44.90;;;;;;474847;251;1477;-53
2022/10/27 04:05:32;;;;;;;;;;;23.30;45.00;;;;;;474781;251;1250;-53
2022/10/27 04:07:33;;;;;;;;;;;23.20;44.90;;;;;;474916;251;1254;-53
2022/10/27 04:09:35;;;;;;;;;;;23.30;44.90;;;;;;475016;251;2189;-53
2022/10/27 04:11:36;;;;;;;;;;;23.30;45.00;;;;;;474613;251;1265;-53
2022/10/27 04:13:39;;;;;;;;;;;23.20;45.00;;;;;;475024;251;1204;-53
2022/10/27 04:15:39;;;;;;;;;;;23.20;44.90;;;;;;474844;251;2204;-53
2022/10/27 04:17:40;;;;;;;;;;;23.20;44.90;;;;;;474598;251;1299;-53
2022/10/27 04:19:41;;;;;;;;;;;23.30;45.00;;;;;;474786;251;1394;-53
2022/10/27 04:21:43;;;;;;;;;;;23.20;45.00;;;;;;474555;251;1196;-52
2022/10/27 04:23:44;;;;;;;;;;;23.20;45.00;;;;;;474637;251;1326;-53
2022/10/27 04:25:45;;;;;;;;;;;23.30;45.00;;;;;;474583;251;1241;-53
2022/10/27 04:27:47;;;;;;;;;;;23.20;45.00;;;;;;474697;251;1448;-53
2022/10/27 04:29:48;;;;;;;;;;;23.20;45.10;;;;;;474839;251;2170;-53
2022/10/27 04:31:49;;;;;;;;;;;23.20;45.10;;;;;;475023;251;1367;-53
2022/10/27 04:33:51;;;;;;;;;;;23.20;45.00;;;;;;474889;251;1571;-53
2022/10/27 04:35:52;;;;;;;;;;;23.20;45.10;;;;;;474937;251;1293;-53
2022/10/27 04:37:53;;;;;;;;;;;23.20;45.00;;;;;;474758;251;1205;-53
2022/10/27 04:39:55;;;;;;;;;;;23.20;45.10;;;;;;474669;251;1211;-53
2022/10/27 04:41:56;;;;;;;;;;;23.20;45.10;;;;;;474811;251;1443;-53
2022/10/27 04:43:57;;;;;;;;;;;23.20;45.10;;;;;;474587;251;1240;-53
2022/10/27 04:45:59;;;;;;;;;;;23.20;45.10;;;;;;474971;251;1275;-53
2022/10/27 04:48:00;;;;;;;;;;;23.20;45.10;;;;;;474710;251;1192;-53
2022/10/27 04:50:01;;;;;;;;;;;23.20;45.20;;;;;;474588;251;2173;-53
2022/10/27 04:52:03;;;;;;;;;;;23.20;45.10;;;;;;475052;251;1188;-53
2022/10/27 04:54:04;;;;;;;;;;;23.20;45.20;;;;;;474603;251;1304;-53
2022/10/27 04:56:05;;;;;;;;;;;23.20;45.10;;;;;;474910;251;1364;-53
2022/10/27 04:58:07;;;;;;;;;;;23.20;45.10;;;;;;474755;251;1231;-53
2022/10/27 05:00:08;;;;;;;;;;;23.20;45.10;;;;;;475069;251;1229;-53
2022/10/27 05:02:09;;;;;;;;;;;23.20;45.20;;;;;;474905;251;1177;-53
2022/10/27 05:04:10;;;;;;;;;;;23.20;45.20;;;;;;474590;251;2050;-52
2022/10/27 05:06:12;;;;;;;;;;;23.10;45.20;;;;;;474554;251;1231;-53
2022/10/27 05:08:13;;;;;;;;;;;23.10;45.20;;;;;;474627;251;1255;-53
2022/10/27 05:10:14;;;;;;;;;;;23.20;45.30;;;;;;474578;251;2153;-53
2022/10/27 05:12:16;;;;;;;;;;;23.20;45.30;;;;;;474793;251;1210;-53
2022/10/27 05:14:17;;;;;;;;;;;23.20;45.20;;;;;;474630;251;1316;-53
2022/10/27 05:16:18;;;;;;;;;;;23.20;45.20;;;;;;474782;251;1391;-53
2022/10/27 05:18:20;;;;;;;;;;;23.20;45.30;;;;;;474806;251;1252;-53
2022/10/27 05:20:21;;;;;;;;;;;23.20;45.30;;;;;;474616;251;1478;-53
2022/10/27 05:22:22;;;;;;;;;;;23.20;45.30;;;;;;474553;251;1308;-53
2022/10/27 05:24:24;;;;;;;;;;;23.20;45.30;;;;;;474608;251;1330;-52
2022/10/27 05:26:25;;;;;;;;;;;23.10;45.30;;;;;;474758;251;1177;-53
2022/10/27 05:28:26;;;;;;;;;;;23.20;45.30;;;;;;474931;251;1312;-53
2022/10/27 05:30:28;;;;;;;;;;;23.20;45.30;;;;;;474568;251;2199;-53
2022/10/27 05:32:29;;;;;;;;;;;23.10;45.30;;;;;;474791;251;1270;-53
2022/10/27 05:34:30;;;;;;;;;;;23.20;45.30;;;;;;474795;251;1212;-53
2022/10/27 05:36:32;;;;;;;;;;;23.20;45.30;;;;;;474573;251;1282;-53
2022/10/27 05:38:33;;;;;;;;;;;23.20;45.30;;;;;;474525;251;1246;-53
2022/10/27 05:40:34;;;;;;;;;;;23.20;45.30;;;;;;474466;251;1362;-53
2022/10/27 05:42:36;;;;;;;;;;;23.20;45.30;;;;;;474523;251;1520;-52
2022/10/27 05:44:37;;;;;;;;;;;23.20;45.30;;;;;;474436;251;1367;-52
2022/10/27 05:46:38;;;;;;;;;;;23.20;45.30;;;;;;474905;251;1225;-53
2022/10/27 05:48:40;;;;;;;;;;;23.10;45.30;;;;;;474451;251;1341;-52
2022/10/27 05:50:41;;;;;;;;;;;23.10;45.20;;;;;;474559;251;2157;-52
2022/10/27 05:52:42;;;;;;;;;;;23.20;45.30;;;;;;474416;251;1283;-52
2022/10/27 05:54:43;;;;;;;;;;;23.10;45.30;;;;;;474523;251;1190;-53
2022/10/27 05:56:45;;;;;;;;;;;23.20;45.30;;;;;;474620;251;1305;-52
2022/10/27 05:58:46;;;;;;;;;;;23.10;45.40;;;;;;474468;251;1184;-53
2022/10/27 06:00:48;;;;;;;;;;;23.20;45.40;;;;;;474523;251;1356;-53
2022/10/27 06:02:49;;;;;;;;;;;23.20;45.30;;;;;;474646;251;1752;-53
2022/10/27 06:04:50;;;;;;;;;;;23.20;45.30;;;;;;474444;251;1357;-53
2022/10/27 06:06:51;;;;;;;;;;;23.20;45.30;;;;;;474536;251;1354;-53
2022/10/27 06:08:53;;;;;;;;;;;23.20;45.30;;;;;;474349;251;1338;-53
2022/10/27 06:10:54;;;;;;;;;;;23.20;45.30;;;;;;474582;251;2196;-53
2022/10/27 06:12:55;;;;;;;;;;;23.20;45.30;;;;;;474521;251;1227;-53
2022/10/27 06:14:57;;;;;;;;;;;23.20;45.30;;;;;;474610;251;1207;-53
2022/10/27 06:16:58;;;;;;;;;;;23.20;45.30;;;;;;474483;251;1856;-53
2022/10/27 06:19:00;;;;;;;;;;;23.10;45.20;;;;;;474520;251;1237;-53
2022/10/27 06:21:01;;;;;;;;;;;23.10;45.30;;;;;;474623;251;1248;-53
2022/10/27 06:23:02;;;;;;;;;;;23.10;45.30;;;;;;474569;251;1220;-53
2022/10/27 06:25:04;;;;;;;;;;;23.10;45.30;;;;;;474664;251;1377;-53
2022/10/27 06:27:05;;;;;;;;;;;23.20;45.30;;;;;;474952;251;1240;-53
2022/10/27 06:29:06;;;;;;;;;;;23.10;45.30;;;;;;474688;251;1206;-53
2022/10/27 06:31:08;;;;;;;;;;;23.10;45.20;;;;;;474537;251;2212;-53
2022/10/27 06:33:09;;;;;;;;;;;23.10;45.20;;;;;;474236;251;1140;-53
2022/10/27 06:35:10;;;;;;;;;;;23.10;45.30;;;;;;474639;251;1266;-53
2022/10/27 06:37:12;;;;;;;;;;;23.20;45.30;;;;;;474640;251;1213;-53
2022/10/27 06:39:13;;;;;;;;;;;23.10;45.20;;;;;;474495;251;1354;-53
2022/10/27 06:41:14;;;;;;;;;;;23.20;45.30;;;;;;474373;251;1217;-53
2022/10/27 06:43:16;;;;;;;;;;;23.20;45.20;;;;;;474433;251;1297;-53
2022/10/27 06:45:17;;;;;;;;;;;23.20;45.20;;;;;;474543;251;1228;-53
2022/10/27 06:47:19;;;;;;;;;;;23.20;45.20;;;;;;474446;251;1220;-53
2022/10/27 06:49:20;;;;;;;;;;;23.20;45.20;;;;;;474503;251;1265;-53
2022/10/27 06:51:21;;;;;;;;;;;23.10;45.20;;;;;;474458;251;2142;-53
2022/10/27 06:53:23;;;;;;;;;;;23.20;45.20;;;;;;474433;251;1275;-53
2022/10/27 06:55:24;;;;;;;;;;;23.20;45.20;;;;;;474420;251;1255;-53
2022/10/27 06:57:25;;;;;;;;;;;23.10;45.10;;;;;;474444;251;1337;-53
2022/10/27 06:59:27;;;;;;;;;;;23.20;45.20;;;;;;474530;251;1344;-53
2022/10/27 07:01:30;;;;;;;;;;;23.20;45.10;;;;;;474257;251;1193;-53
2022/10/27 07:03:33;;;;;;;;;;;23.20;45.20;;;;;;473835;251;2144;-53
2022/10/27 07:05:31;;;;;;;;;;;23.20;45.20;;;;;;473829;251;2190;-53
2022/10/27 07:07:32;;;;;;;;;;;23.10;45.20;;;;;;473965;251;1271;-53
2022/10/27 07:09:34;;;;;;;;;;;23.20;45.20;;;;;;474155;251;1347;-53
2022/10/27 07:11:35;;;;;;;;;;;23.20;45.10;;;;;;474011;251;2221;-53
2022/10/27 07:13:37;;;;;;;;;;;23.20;45.10;;;;;;474047;251;1240;-53
2022/10/27 07:15:38;;;;;;;;;;;23.20;45.20;;;;;;473952;251;1199;-53
2022/10/27 07:17:39;;;;;;;;;;;23.20;45.20;;;;;;473947;251;1219;-53
2022/10/27 07:19:40;;;;;;;;;;;23.20;45.20;;;;;;474063;251;1248;-53
2022/10/27 07:21:42;;;;;;;;;;;23.20;45.20;;;;;;473920;251;1254;-53
2022/10/27 07:23:43;;;;;;;;;;;23.10;45.20;;;;;;473922;251;1365;-53
2022/10/27 07:25:44;;;;;;;;;;;23.10;45.20;;;;;;473990;251;1296;-54
2022/10/27 07:27:46;;;;;;;;;;;23.10;45.20;;;;;;473997;251;1272;-52
2022/10/27 07:29:48;;;;;;;;;;;23.10;45.20;;;;;;474059;251;1254;-53
2022/10/27 07:31:49;;;;;;;;;;;23.10;45.30;;;;;;474063;251;2201;-53
2022/10/27 07:33:50;;;;;;;;;;;23.10;45.30;;;;;;474092;251;1236;-53
2022/10/27 07:35:52;;;;;;;;;;;23.10;45.30;;;;;;474044;251;1197;-52
2022/10/27 07:37:53;;;;;;;;;;;23.10;45.40;;;;;;474125;251;1230;-53
2022/10/27 07:39:54;;;;;;;;;;;23.10;45.40;;;;;;473934;251;1256;-53
2022/10/27 07:41:56;;;;;;;;;;;23.10;45.40;;;;;;474118;251;1227;-53
2022/10/27 07:43:57;;;;;;;;;;;23.10;45.40;;;;;;473900;251;1268;-53
2022/10/27 07:45:58;;;;;;;;;;;23.10;45.40;;;;;;473936;251;1654;-53
2022/10/27 07:47:59;;;;;;;;;;;23.10;45.40;;;;;;473930;251;1235;-53
2022/10/27 07:50:01;;;;;;;;;;;23.10;45.50;;;;;;474000;251;1274;-53
2022/10/27 07:52:02;;;;;;;;;;;23.10;45.50;;;;;;474328;251;2173;-53
2022/10/27 07:54:03;;;;;;;;;;;23.10;45.50;;;;;;474281;251;1175;-52
2022/10/27 07:56:05;;;;;;;;;;;23.10;45.50;;;;;;474107;251;1201;-52
2022/10/27 07:58:06;;;;;;;;;;;23.10;45.50;;;;;;474386;251;1367;-53
2022/10/27 08:00:08;;;;;;;;;;;23.10;45.50;;;;;;474264;251;1257;-53
2022/10/27 08:02:09;;;;;;;;;;;23.10;45.50;;;;;;474369;251;1305;-53
2022/10/27 08:04:10;;;;;;;;;;;23.10;45.50;;;;;;474212;251;1239;-53
2022/10/27 08:06:12;;;;;;;;;;;23.10;45.50;;;;;;473939;251;1226;-53
2022/10/27 08:08:14;;;;;;;;;;;23.10;45.60;;;;;;474207;251;1374;-53
2022/10/27 08:10:15;;;;;;;;;;;23.10;45.60;;;;;;474598;251;1165;-53
2022/10/27 08:12:16;;;;;;;;;;;23.10;45.60;;;;;;474228;251;2205;-53
2022/10/27 08:14:18;;;;;;;;;;;23.10;45.60;;;;;;474070;251;1291;-53
2022/10/27 08:16:19;;;;;;;;;;;23.10;45.60;;;;;;474056;251;2238;-53
2022/10/27 08:18:20;;;;;;;;;;;23.10;45.60;;;;;;473939;251;1268;-52
2022/10/27 08:20:22;;;;;;;;;;;23.00;45.60;;;;;;474419;251;1300;-53
2022/10/27 08:22:23;;;;;;;;;;;23.10;45.60;;;;;;474686;251;2095;-53
2022/10/27 08:24:24;;;;;;;;;;;23.10;45.60;;;;;;474121;251;1622;-53
2022/10/27 08:26:25;;;;;;;;;;;23.10;45.60;;;;;;473958;251;1279;-53
2022/10/27 08:28:27;;;;;;;;;;;23.10;45.70;;;;;;474202;251;1289;-53
2022/10/27 08:30:28;;;;;;;;;;;23.00;45.70;;;;;;474330;251;1208;-53
2022/10/27 08:32:29;;;;;;;;;;;23.00;45.70;;;;;;474269;251;2198;-53
2022/10/27 08:34:31;;;;;;;;;;;23.10;45.80;;;;;;473985;251;1512;-52
2022/10/27 08:36:37;;;;;;;;;;;23.10;45.70;;;;;;474036;251;1241;-53
2022/10/27 08:38:34;;;;;;;;;;;23.10;45.70;;;;;;473497;251;1802;-53
2022/10/27 08:40:35;;;;;;;;;;;23.10;45.70;;;;;;473915;251;2409;-52
2022/10/27 08:42:36;;;;;;;;;;;23.10;45.70;;;;;;473910;251;1210;-53
2022/10/27 08:44:37;;;;;;;;;;;23.10;45.70;;;;;;473921;251;1325;-53
2022/10/27 08:46:39;;;;;;;;;;;23.10;45.70;;;;;;474183;251;1312;-53
2022/10/27 08:48:40;;;;;;;;;;;23.10;45.70;;;;;;474318;251;1158;-53
2022/10/27 08:50:41;;;;;;;;;;;23.10;45.70;;;;;;474730;251;1113;-53
2022/10/27 08:52:43;;;;;;;;;;;23.10;45.80;;;;;;474345;251;2192;-53
2022/10/27 08:54:44;;;;;;;;;;;23.10;45.70;;;;;;473772;251;1276;-52
2022/10/27 08:56:45;;;;;;;;;;;23.10;45.70;;;;;;473813;251;1249;-53
2022/10/27 08:58:47;;;;;;;;;;;23.10;45.70;;;;;;473959;251;1281;-53
2022/10/27 09:00:48;;;;;;;;;;;23.10;45.70;;;;;;473740;251;1286;-52
2022/10/27 09:02:49;;;;;;;;;;;23.10;45.70;;;;;;473886;251;1371;-54
2022/10/27 09:04:50;;;;;;;;;;;23.10;45.80;;;;;;473880;251;1206;-53
2022/10/27 09:06:52;;;;;;;;;;;23.10;45.80;;;;;;473834;250;1245;-53
2022/10/27 09:08:53;;;;;;;;;;;23.10;45.80;;;;;;473873;251;1293;-53
2022/10/27 09:10:54;;;;;;;;;;;23.10;45.80;;;;;;474025;251;1290;-53
2022/10/27 09:12:56;;;;;;;;;;;23.10;45.80;;;;;;473953;251;2221;-53
2022/10/27 09:14:57;;;;;;;;;;;23.10;45.70;;;;;;474004;251;1302;-53
2022/10/27 09:16:58;;;;;;;;;;;23.10;45.80;;;;;;473988;251;1209;-53
2022/10/27 09:19:00;;;;;;;;;;;23.10;45.80;;;;;;473961;251;1208;-52
2022/10/27 09:21:01;;;;;;;;;;;23.10;45.80;;;;;;474167;251;1292;-53
2022/10/27 09:23:02;;;;;;;;;;;23.10;45.80;;;;;;473982;251;1272;-53
2022/10/27 09:25:04;;;;;;;;;;;23.10;45.80;;;;;;474086;251;1196;-53
2022/10/27 09:27:06;;;;;;;;;;;23.10;45.80;;;;;;473835;251;1251;-53
2022/10/27 09:29:09;;;;;;;;;;;23.10;45.90;;;;;;473822;251;1216;-53
2022/10/27 09:31:08;;;;;;;;;;;23.10;45.90;;;;;;473906;251;2143;-53
2022/10/27 09:33:09;;;;;;;;;;;23.10;45.90;;;;;;473911;251;2217;-53
2022/10/27 09:35:11;;;;;;;;;;;23.10;45.90;;;;;;474005;251;1239;-52
2022/10/27 09:37:13;;;;;;;;;;;23.10;45.90;;;;;;474054;251;1207;-53
2022/10/27 09:39:14;;;;;;;;;;;23.10;45.90;;;;;;473938;251;1258;-53
2022/10/27 09:41:15;;;;;;;;;;;23.10;46.00;;;;;;473805;251;1256;-52
2022/10/27 09:43:17;;;;;;;;;;;23.10;46.00;;;;;;473899;251;1244;-52
2022/10/27 09:45:18;;;;;;;;;;;23.10;46.00;;;;;;474013;251;1432;-52
2022/10/27 09:47:19;;;;;;;;;;;23.10;46.00;;;;;;474490;251;1214;-53
2022/10/27 09:49:21;;;;;;;;;;;23.10;46.00;;;;;;473940;251;1173;-53
2022/10/27 09:51:22;;;;;;;;;;;23.10;46.00;;;;;;473966;251;2158;-53
2022/10/27 09:53:23;;;;;;;;;;;23.10;46.00;;;;;;473953;251;1359;-52
2022/10/27 09:55:25;;;;;;;;;;;23.10;46.00;;;;;;474063;251;1238;-52
2022/10/27 09:57:27;;;;;;;;;;;23.10;46.00;;;;;;474072;251;1364;-53
2022/10/27 09:59:27;;;;;;;;;;;23.10;46.00;;;;;;474686;251;2200;-53
2022/10/27 10:01:29;;;;;;;;;;;23.10;46.00;;;;;;474472;251;1111;-53
2022/10/27 10:03:30;;;;;;;;;;;23.10;46.00;;;;;;474140;251;1169;-53
2022/10/27 10:05:31;;;;;;;;;;;23.10;46.00;;;;;;474023;251;1338;-53
2022/10/27 10:07:33;;;;;;;;;;;23.10;46.00;;;;;;474000;251;1293;-53
2022/10/27 10:09:34;;;;;;;;;;;23.10;46.00;;;;;;473967;251;1240;-53
2022/10/27 10:11:36;;;;;;;;;;;23.10;46.00;;;;;;473821;251;2203;-52
2022/10/27 10:13:37;;;;;;;;;;;23.10;46.00;;;;;;473970;251;1244;-53
2022/10/27 10:15:38;;;;;;;;;;;23.10;46.10;;;;;;473866;251;1292;-53
2022/10/27 10:17:40;;;;;;;;;;;23.10;46.10;;;;;;473853;251;1297;-53
2022/10/27 10:19:44;;;;;;;;;;;23.10;46.10;;;;;;473845;251;1258;-53
2022/10/27 10:21:42;;;;;;;;;;;23.10;46.10;;;;;;473722;251;2176;-53
2022/10/27 10:23:44;;;;;;;;;;;23.10;46.10;;;;;;474056;251;1279;-53
2022/10/27 10:25:46;;;;;;;;;;;23.10;46.10;;;;;;474011;251;1185;-53
2022/10/27 10:27:47;;;;;;;;;;;23.10;46.20;;;;;;474160;251;1189;-53
2022/10/27 10:29:48;;;;;;;;;;;23.10;46.10;;;;;;474156;251;1312;-53
2022/10/27 10:31:49;;;;;;;;;;;23.10;46.10;;;;;;474327;251;2197;-53
2022/10/27 10:33:51;;;;;;;;;;;23.10;46.20;;;;;;474128;251;1295;-53
2022/10/27 10:35:52;;;;;;;;;;;23.10;46.20;;;;;;474132;251;1467;-55
2022/10/27 10:37:53;;;;;;;;;;;23.10;46.20;;;;;;474163;251;1293;-53
2022/10/27 10:39:55;;;;;;;;;;;23.10;46.20;;;;;;474413;251;1261;-53
2022/10/27 10:41:56;;;;;;;;;;;23.10;46.20;;;;;;474239;251;1186;-52
2022/10/27 10:43:57;;;;;;;;;;;23.10;46.20;;;;;;474767;251;1357;-52
2022/10/27 10:45:59;;;;;;;;;;;23.10;46.20;;;;;;474586;251;1166;-53
2022/10/27 10:48:00;;;;;;;;;;;23.10;46.20;;;;;;474246;251;1164;-52
2022/10/27 10:50:02;;;;;;;;;;;23.10;46.20;;;;;;474174;251;1238;-53
2022/10/27 10:52:03;;;;;;;;;;;23.10;46.30;;;;;;474104;251;2161;-53
2022/10/27 10:54:04;;;;;;;;;;;23.10;46.30;;;;;;474080;251;1320;-53
2022/10/27 10:56:06;;;;;;;;;;;23.10;46.30;;;;;;474058;251;1288;-53
2022/10/27 10:58:07;;;;;;;;;;;23.10;46.30;;;;;;474201;251;1186;-53
2022/10/27 11:00:08;;;;;;;;;;;23.10;46.30;;;;;;473941;251;1315;-53
2022/10/27 11:02:10;;;;;;;;;;;23.10;46.20;;;;;;473719;251;1341;-53
2022/10/27 11:04:11;;;;;;;;;;;23.10;46.20;;;;;;473926;251;1766;-52
2022/10/27 11:06:12;;;;;;;;;;;23.10;46.20;;;;;;474065;251;1287;-53
2022/10/27 11:08:14;;;;;;;;;;;23.10;46.20;;;;;;473893;251;1278;-53
2022/10/27 11:10:16;;;;;;;;;;;23.10;46.20;;;;;;474091;251;1236;-53
2022/10/27 11:12:17;;;;;;;;;;;23.10;46.20;;;;;;473973;251;2185;-53
2022/10/27 11:14:18;;;;;;;;;;;23.10;46.20;;;;;;474060;251;1186;-53
2022/10/27 11:16:19;;;;;;;;;;;23.10;46.30;;;;;;473864;251;1559;-53
2022/10/27 11:18:21;;;;;;;;;;;23.10;46.30;;;;;;474786;251;1033;-53
2022/10/27 11:20:22;;;;;;;;;;;23.10;46.20;;;;;;474379;251;1112;-53
2022/10/27 11:22:24;;;;;;;;;;;23.10;46.20;;;;;;474147;251;1148;-53
2022/10/27 11:24:25;;;;;;;;;;;23.10;46.30;;;;;;473972;251;2063;-53
2022/10/27 11:26:26;;;;;;;;;;;23.10;46.30;;;;;;473983;251;1619;-53
2022/10/27 11:28:27;;;;;;;;;;;23.10;46.30;;;;;;473899;251;1365;-53
2022/10/27 11:30:29;;;;;;;;;;;23.10;46.30;;;;;;473830;251;1365;-53
2022/10/27 11:32:32;;;;;;;;;;;23.10;46.30;;;;;;474335;251;2181;-53
2022/10/27 11:34:31;;;;;;;;;;;23.10;46.30;;;;;;474021;251;2211;-53
2022/10/27 11:36:33;;;;;;;;;;;23.10;46.30;;;;;;473962;251;1277;-53
2022/10/27 11:38:34;;;;;;;;;;;23.10;46.30;;;;;;473856;251;1520;-53
2022/10/27 11:40:35;;;;;;;;;;;23.10;46.30;;;;;;473789;251;1267;-53
2022/10/27 11:42:36;;;;;;;;;;;23.10;46.20;;;;;;474115;251;1215;-53
2022/10/27 11:44:38;;;;;;;;;;;23.10;46.30;;;;;;474657;251;1389;-53
2022/10/27 11:46:40;;;;;;;;;;;23.10;46.30;;;;;;474323;251;1084;-53
2022/10/27 11:48:41;;;;;;;;;;;23.10;46.30;;;;;;474243;251;1141;-53
2022/10/27 11:50:42;;;;;;;;;;;23.20;46.30;;;;;;474203;251;1141;-52
2022/10/27 11:52:44;;;;;;;;;;;23.20;46.30;;;;;;474148;251;2181;-53
2022/10/27 11:54:45;;;;;;;;;;;23.10;46.20;;;;;;473896;251;1278;-53
2022/10/27 11:56:46;;;;;;;;;;;23.10;46.20;;;;;;473947;251;1412;-52